sensor_id;sensor_type;location;lat;lon;timestamp;temperature;humidity
51337;DHT22;37421;51.176;17.196;2022-12-10T00:01:07;11.10;99.90
51337;DHT22;37421;51.176;17.196;2022-12-10T00:03:37;11.20;99.90
51337;DHT22;37421;51.176;17.196;2022-12-10T00:06:14;11.10;99.90
51337;DHT22;37421;51.176;17.196;2022-12-10T00:08:41;11.10;99.90
51337;DHT22;37421;51.176;17.196;2022-12-10T00:11:08;11.10;99.90
51337;DHT22;37421;51.176;17.196;2022-12-10T00:13:36;11.10;99.90
51337;DHT22;37421;51.176;17.196;2022-12-10T00:16:08;11.10;99.90
51337;DHT22;37421;51.176;17.196;2022-12-10T00:18:36;11.20;99.90
51337;DHT22;37421;51.176;17.196;2022-12-10T00:21:24;11.10;99.90
51337;DHT22;37421;51.176;17.196;2022-12-10T00:23:50;11.20;99.90
51337;DHT22;37421;51.176;17.196;2022-12-10T00:26:21;11.10;99.90
51337;DHT22;37421;51.176;17.196;2022-12-10T00:28:48;11.20;99.90
51337;DHT22;37421;51.176;17.196;2022-12-10T00:31:29;11.20;99.90
51337;DHT22;37421;51.176;17.196;2022-12-10T00:34:10;11.10;99.90
51337;DHT22;37421;51.176;17.196;2022-12-10T00:36:48;11.10;99.90
51337;DHT22;37421;51.176;17.196;2022-12-10T00:39:21;11.20;99.90
51337;DHT22;37421;51.176;17.196;2022-12-10T00:42:02;11.10;99.90
51337;DHT22;37421;51.176;17.196;2022-12-10T00:44:30;11.20;99.90
51337;DHT22;37421;51.176;17.196;2022-12-10T00:46:56;11.20;99.90
51337;DHT22;37421;51.176;17.196;2022-12-10T00:49:22;11.20;99.90
51337;DHT22;37421;51.176;17.196;2022-12-10T00:51:53;11.20;99.90
51337;DHT22;37421;51.176;17.196;2022-12-10T00:54:21;11.20;99.90
51337;DHT22;37421;51.176;17.196;2022-12-10T00:56:50;11.20;99.90
51337;DHT22;37421;51.176;17.196;2022-12-10T00:59:19;11.10;99.90
51337;DHT22;37421;51.176;17.196;2022-12-10T01:01:48;11.10;99.90
51337;DHT22;37421;51.176;17.196;2022-12-10T01:04:22;11.20;99.90
51337;DHT22;37421;51.176;17.196;2022-12-10T01:06:50;11.20;99.90
51337;DHT22;37421;51.176;17.196;2022-12-10T01:09:20;11.20;99.90
51337;DHT22;37421;51.176;17.196;2022-12-10T01:11:50;11.20;99.90
51337;DHT22;37421;51.176;17.196;2022-12-10T01:14:34;11.20;99.90
51337;DHT22;37421;51.176;17.196;2022-12-10T01:17:04;11.20;99.90
51337;DHT22;37421;51.176;17.196;2022-12-10T01:19:32;11.20;99.90
51337;DHT22;37421;51.176;17.196;2022-12-10T01:21:58;11.20;99.90
51337;DHT22;37421;51.176;17.196;2022-12-10T01:24:26;11.30;99.90
51337;DHT22;37421;51.176;17.196;2022-12-10T01:26:59;11.30;99.90
51337;DHT22;37421;51.176;17.196;2022-12-10T01:29:25;11.20;99.90
51337;DHT22;37421;51.176;17.196;2022-12-10T01:31:54;11.10;99.90
51337;DHT22;37421;51.176;17.196;2022-12-10T01:34:23;11.20;99.90
51337;DHT22;37421;51.176;17.196;2022-12-10T01:36:52;11.20;99.90
51337;DHT22;37421;51.176;17.196;2022-12-10T01:39:29;11.20;99.90
51337;DHT22;37421;51.176;17.196;2022-12-10T01:41:58;11.20;99.90
51337;DHT22;37421;51.176;17.196;2022-12-10T01:46:53;11.20;99.90
51337;DHT22;37421;51.176;17.196;2022-12-10T01:49:39;11.20;99.90
51337;DHT22;37421;51.176;17.196;2022-12-10T01:52:10;11.30;99.90
51337;DHT22;37421;51.176;17.196;2022-12-10T01:54:39;11.30;99.90
51337;DHT22;37421;51.176;17.196;2022-12-10T01:57:09;11.30;99.90
51337;DHT22;37421;51.176;17.196;2022-12-10T01:59:42;11.20;99.90
51337;DHT22;37421;51.176;17.196;2022-12-10T02:02:17;11.20;99.90
51337;DHT22;37421;51.176;17.196;2022-12-10T02:05:07;11.20;99.90
51337;DHT22;37421;51.176;17.196;2022-12-10T02:10:19;11.20;99.90
51337;DHT22;37421;51.176;17.196;2022-12-10T02:12:57;11.20;99.90
51337;DHT22;37421;51.176;17.196;2022-12-10T02:15:34;11.20;99.90
51337;DHT22;37421;51.176;17.196;2022-12-10T02:21:15;11.20;99.90
51337;DHT22;37421;51.176;17.196;2022-12-10T02:23:49;11.20;99.90
51337;DHT22;37421;51.176;17.196;2022-12-10T02:27:26;11.10;99.90
51337;DHT22;37421;51.176;17.196;2022-12-10T02:29:27;11.10;99.90
51337;DHT22;37421;51.176;17.196;2022-12-10T02:32:08;11.20;99.90
51337;DHT22;37421;51.176;17.196;2022-12-10T02:34:49;11.20;99.90
51337;DHT22;37421;51.176;17.196;2022-12-10T02:37:53;11.10;99.90
51337;DHT22;37421;51.176;17.196;2022-12-10T02:40:23;11.10;99.90
51337;DHT22;37421;51.176;17.196;2022-12-10T02:43:00;11.10;99.90
51337;DHT22;37421;51.176;17.196;2022-12-10T02:45:31;11.10;99.90
51337;DHT22;37421;51.176;17.196;2022-12-10T02:47:59;11.10;99.90
51337;DHT22;37421;51.176;17.196;2022-12-10T02:50:26;11.10;99.90
51337;DHT22;37421;51.176;17.196;2022-12-10T02:52:52;11.00;99.90
51337;DHT22;37421;51.176;17.196;2022-12-10T02:55:21;11.10;99.90
51337;DHT22;37421;51.176;17.196;2022-12-10T02:57:57;11.00;99.90
51337;DHT22;37421;51.176;17.196;2022-12-10T03:00:25;11.80;99.90
51337;DHT22;37421;51.176;17.196;2022-12-10T03:05:40;12.60;99.90
51337;DHT22;37421;51.176;17.196;2022-12-10T03:08:28;12.60;99.90
51337;DHT22;37421;51.176;17.196;2022-12-10T03:11:08;12.70;99.90
51337;DHT22;37421;51.176;17.196;2022-12-10T03:16:59;12.60;99.90
51337;DHT22;37421;51.176;17.196;2022-12-10T03:19:42;12.70;99.90
51337;DHT22;37421;51.176;17.196;2022-12-10T03:22:14;12.60;99.90
51337;DHT22;37421;51.176;17.196;2022-12-10T03:24:47;12.60;99.90
51337;DHT22;37421;51.176;17.196;2022-12-10T03:27:17;12.60;99.90
51337;DHT22;37421;51.176;17.196;2022-12-10T03:29:50;12.60;99.90
51337;DHT22;37421;51.176;17.196;2022-12-10T03:32:19;12.60;99.90
51337;DHT22;37421;51.176;17.196;2022-12-10T03:34:47;12.60;99.90
51337;DHT22;37421;51.176;17.196;2022-12-10T03:37:16;12.60;99.90
51337;DHT22;37421;51.176;17.196;2022-12-10T03:39:43;12.60;99.90
51337;DHT22;37421;51.176;17.196;2022-12-10T03:42:09;12.60;99.90
51337;DHT22;37421;51.176;17.196;2022-12-10T03:44:37;12.60;99.90
51337;DHT22;37421;51.176;17.196;2022-12-10T03:47:05;12.60;99.90
51337;DHT22;37421;51.176;17.196;2022-12-10T03:49:33;12.60;99.90
51337;DHT22;37421;51.176;17.196;2022-12-10T03:51:59;12.60;99.90
51337;DHT22;37421;51.176;17.196;2022-12-10T03:54:28;12.50;99.90
51337;DHT22;37421;51.176;17.196;2022-12-10T03:56:54;12.60;99.90
51337;DHT22;37421;51.176;17.196;2022-12-10T03:59:20;12.50;99.90
51337;DHT22;37421;51.176;17.196;2022-12-10T04:01:46;12.50;99.90
51337;DHT22;37421;51.176;17.196;2022-12-10T04:04:15;12.60;99.90
51337;DHT22;37421;51.176;17.196;2022-12-10T04:06:42;12.50;99.90
51337;DHT22;37421;51.176;17.196;2022-12-10T04:09:13;12.50;99.90
51337;DHT22;37421;51.176;17.196;2022-12-10T04:11:42;12.50;99.90
51337;DHT22;37421;51.176;17.196;2022-12-10T04:14:10;12.60;99.90
51337;DHT22;37421;51.176;17.196;2022-12-10T04:16:55;12.60;99.90
51337;DHT22;37421;51.176;17.196;2022-12-10T04:19:21;12.60;99.90
51337;DHT22;37421;51.176;17.196;2022-12-10T04:21:50;12.60;99.90
51337;DHT22;37421;51.176;17.196;2022-12-10T04:24:35;12.60;99.90
51337;DHT22;37421;51.176;17.196;2022-12-10T04:27:27;12.60;99.90
51337;DHT22;37421;51.176;17.196;2022-12-10T04:29:58;12.70;99.90
51337;DHT22;37421;51.176;17.196;2022-12-10T04:32:26;12.60;99.90
51337;DHT22;37421;51.176;17.196;2022-12-10T04:34:53;12.60;99.90
51337;DHT22;37421;51.176;17.196;2022-12-10T04:37:24;12.60;99.90
51337;DHT22;37421;51.176;17.196;2022-12-10T04:39:51;12.70;99.90
51337;DHT22;37421;51.176;17.196;2022-12-10T04:42:17;12.70;99.90
51337;DHT22;37421;51.176;17.196;2022-12-10T04:44:46;12.60;99.90
51337;DHT22;37421;51.176;17.196;2022-12-10T04:47:15;12.70;99.90
51337;DHT22;37421;51.176;17.196;2022-12-10T04:49:41;12.80;99.90
51337;DHT22;37421;51.176;17.196;2022-12-10T04:52:12;12.80;99.90
51337;DHT22;37421;51.176;17.196;2022-12-10T04:54:50;12.80;99.90
51337;DHT22;37421;51.176;17.196;2022-12-10T04:57:16;12.80;99.90
51337;DHT22;37421;51.176;17.196;2022-12-10T04:59:42;12.90;99.90
51337;DHT22;37421;51.176;17.196;2022-12-10T05:02:10;12.80;99.90
51337;DHT22;37421;51.176;17.196;2022-12-10T05:04:39;12.80;99.90
51337;DHT22;37421;51.176;17.196;2022-12-10T05:07:05;12.90;99.90
51337;DHT22;37421;51.176;17.196;2022-12-10T05:09:31;12.90;99.90
51337;DHT22;37421;51.176;17.196;2022-12-10T05:12:01;12.90;99.90
51337;DHT22;37421;51.176;17.196;2022-12-10T05:14:34;13.00;99.90
51337;DHT22;37421;51.176;17.196;2022-12-10T05:17:02;13.00;99.90
51337;DHT22;37421;51.176;17.196;2022-12-10T05:19:28;12.90;99.90
51337;DHT22;37421;51.176;17.196;2022-12-10T05:21:54;13.00;99.90
51337;DHT22;37421;51.176;17.196;2022-12-10T05:24:39;13.00;99.90
51337;DHT22;37421;51.176;17.196;2022-12-10T05:27:07;12.80;99.90
51337;DHT22;37421;51.176;17.196;2022-12-10T05:29:33;12.80;99.90
51337;DHT22;37421;51.176;17.196;2022-12-10T05:32:03;12.90;99.90
51337;DHT22;37421;51.176;17.196;2022-12-10T05:34:36;13.00;99.90
51337;DHT22;37421;51.176;17.196;2022-12-10T05:37:02;12.90;99.90
51337;DHT22;37421;51.176;17.196;2022-12-10T05:39:28;13.00;99.90
51337;DHT22;37421;51.176;17.196;2022-12-10T05:41:54;13.00;99.90
51337;DHT22;37421;51.176;17.196;2022-12-10T05:44:22;12.80;99.90
51337;DHT22;37421;51.176;17.196;2022-12-10T05:46:52;13.00;99.90
51337;DHT22;37421;51.176;17.196;2022-12-10T05:49:18;13.00;99.90
51337;DHT22;37421;51.176;17.196;2022-12-10T05:51:44;13.00;99.90
51337;DHT22;37421;51.176;17.196;2022-12-10T05:54:10;12.90;99.90
51337;DHT22;37421;51.176;17.196;2022-12-10T05:56:37;12.90;99.90
51337;DHT22;37421;51.176;17.196;2022-12-10T05:59:06;12.90;99.90
51337;DHT22;37421;51.176;17.196;2022-12-10T06:04:29;12.90;99.90
51337;DHT22;37421;51.176;17.196;2022-12-10T06:06:55;13.00;99.90
51337;DHT22;37421;51.176;17.196;2022-12-10T06:09:21;12.90;99.90
51337;DHT22;37421;51.176;17.196;2022-12-10T06:11:47;12.80;99.90
51337;DHT22;37421;51.176;17.196;2022-12-10T06:14:15;12.90;99.90
51337;DHT22;37421;51.176;17.196;2022-12-10T06:16:44;13.00;99.90
51337;DHT22;37421;51.176;17.196;2022-12-10T06:19:13;12.80;99.90
51337;DHT22;37421;51.176;17.196;2022-12-10T06:21:39;13.00;99.90
51337;DHT22;37421;51.176;17.196;2022-12-10T06:24:06;13.40;99.90
51337;DHT22;37421;51.176;17.196;2022-12-10T06:26:47;13.60;99.90
51337;DHT22;37421;51.176;17.196;2022-12-10T06:29:13;13.70;99.90
51337;DHT22;37421;51.176;17.196;2022-12-10T06:31:39;13.70;99.90
51337;DHT22;37421;51.176;17.196;2022-12-10T06:34:08;13.60;99.90
51337;DHT22;37421;51.176;17.196;2022-12-10T06:36:33;13.50;99.90
51337;DHT22;37421;51.176;17.196;2022-12-10T06:39:03;13.50;99.90
51337;DHT22;37421;51.176;17.196;2022-12-10T06:41:32;13.40;99.90
51337;DHT22;37421;51.176;17.196;2022-12-10T06:43:58;13.30;99.90
51337;DHT22;37421;51.176;17.196;2022-12-10T06:46:27;13.30;99.90
51337;DHT22;37421;51.176;17.196;2022-12-10T06:48:54;13.30;99.90
51337;DHT22;37421;51.176;17.196;2022-12-10T06:51:20;13.10;99.90
51337;DHT22;37421;51.176;17.196;2022-12-10T06:53:46;13.20;99.90
51337;DHT22;37421;51.176;17.196;2022-12-10T06:56:19;13.30;99.90
51337;DHT22;37421;51.176;17.196;2022-12-10T06:58:48;13.30;99.90
51337;DHT22;37421;51.176;17.196;2022-12-10T07:01:20;13.00;99.90
51337;DHT22;37421;51.176;17.196;2022-12-10T07:03:52;13.10;99.90
51337;DHT22;37421;51.176;17.196;2022-12-10T07:06:19;13.10;99.90
51337;DHT22;37421;51.176;17.196;2022-12-10T07:08:46;13.10;99.90
51337;DHT22;37421;51.176;17.196;2022-12-10T07:11:14;13.00;99.90
51337;DHT22;37421;51.176;17.196;2022-12-10T07:13:40;13.20;99.90
51337;DHT22;37421;51.176;17.196;2022-12-10T07:19:20;13.10;99.90
51337;DHT22;37421;51.176;17.196;2022-12-10T07:21:49;13.10;99.90
51337;DHT22;37421;51.176;17.196;2022-12-10T07:24:26;13.20;99.90
51337;DHT22;37421;51.176;17.196;2022-12-10T07:26:57;13.20;99.90
51337;DHT22;37421;51.176;17.196;2022-12-10T07:29:23;13.20;99.90
51337;DHT22;37421;51.176;17.196;2022-12-10T07:31:52;13.10;99.90
51337;DHT22;37421;51.176;17.196;2022-12-10T07:34:26;13.20;99.90
51337;DHT22;37421;51.176;17.196;2022-12-10T07:36:52;13.20;99.90
51337;DHT22;37421;51.176;17.196;2022-12-10T07:39:18;13.10;99.90
51337;DHT22;37421;51.176;17.196;2022-12-10T07:41:48;13.10;99.90
51337;DHT22;37421;51.176;17.196;2022-12-10T07:44:17;13.20;99.90
51337;DHT22;37421;51.176;17.196;2022-12-10T07:46:44;13.10;99.90
51337;DHT22;37421;51.176;17.196;2022-12-10T07:49:10;13.00;99.90
51337;DHT22;37421;51.176;17.196;2022-12-10T07:51:36;13.00;99.90
51337;DHT22;37421;51.176;17.196;2022-12-10T07:54:05;13.10;99.90
51337;DHT22;37421;51.176;17.196;2022-12-10T07:56:34;13.10;99.90
51337;DHT22;37421;51.176;17.196;2022-12-10T07:59:03;13.20;99.90
51337;DHT22;37421;51.176;17.196;2022-12-10T08:01:31;13.10;99.90
51337;DHT22;37421;51.176;17.196;2022-12-10T08:04:10;13.20;99.90
51337;DHT22;37421;51.176;17.196;2022-12-10T08:06:39;13.20;99.90
51337;DHT22;37421;51.176;17.196;2022-12-10T08:09:05;13.20;99.90
51337;DHT22;37421;51.176;17.196;2022-12-10T08:11:32;13.30;99.90
51337;DHT22;37421;51.176;17.196;2022-12-10T08:14:01;13.30;99.90
51337;DHT22;37421;51.176;17.196;2022-12-10T08:16:30;13.30;99.90
51337;DHT22;37421;51.176;17.196;2022-12-10T08:18:59;13.20;99.90
51337;DHT22;37421;51.176;17.196;2022-12-10T08:21:28;13.20;99.90
51337;DHT22;37421;51.176;17.196;2022-12-10T08:23:57;13.20;99.90
51337;DHT22;37421;51.176;17.196;2022-12-10T08:26:26;13.10;99.90
51337;DHT22;37421;51.176;17.196;2022-12-10T08:28:54;13.00;99.90
51337;DHT22;37421;51.176;17.196;2022-12-10T08:31:21;13.10;99.90
51337;DHT22;37421;51.176;17.196;2022-12-10T08:34:02;13.20;99.90
51337;DHT22;37421;51.176;17.196;2022-12-10T08:36:30;13.20;99.90
51337;DHT22;37421;51.176;17.196;2022-12-10T08:38:59;13.10;99.90
51337;DHT22;37421;51.176;17.196;2022-12-10T08:41:38;13.20;99.90
51337;DHT22;37421;51.176;17.196;2022-12-10T08:44:04;13.30;99.90
51337;DHT22;37421;51.176;17.196;2022-12-10T08:46:40;13.30;99.90
51337;DHT22;37421;51.176;17.196;2022-12-10T08:49:09;13.30;99.90
51337;DHT22;37421;51.176;17.196;2022-12-10T08:51:44;13.20;99.90
51337;DHT22;37421;51.176;17.196;2022-12-10T08:54:10;13.20;99.90
51337;DHT22;37421;51.176;17.196;2022-12-10T08:56:59;13.40;99.90
51337;DHT22;37421;51.176;17.196;2022-12-10T08:59:28;13.40;99.90
51337;DHT22;37421;51.176;17.196;2022-12-10T09:01:53;13.30;99.90
51337;DHT22;37421;51.176;17.196;2022-12-10T09:04:19;13.30;99.90
51337;DHT22;37421;51.176;17.196;2022-12-10T09:06:49;13.30;99.90
51337;DHT22;37421;51.176;17.196;2022-12-10T09:09:21;13.40;99.90
51337;DHT22;37421;51.176;17.196;2022-12-10T09:11:55;13.40;99.90
51337;DHT22;37421;51.176;17.196;2022-12-10T09:14:26;13.40;99.90
51337;DHT22;37421;51.176;17.196;2022-12-10T09:16:56;13.50;99.90
51337;DHT22;37421;51.176;17.196;2022-12-10T09:19:24;13.40;99.90
51337;DHT22;37421;51.176;17.196;2022-12-10T09:21:53;13.30;99.90
51337;DHT22;37421;51.176;17.196;2022-12-10T09:24:22;13.40;99.90
51337;DHT22;37421;51.176;17.196;2022-12-10T09:27:06;13.40;99.90
51337;DHT22;37421;51.176;17.196;2022-12-10T09:30:07;13.40;99.90
51337;DHT22;37421;51.176;17.196;2022-12-10T09:32:30;13.40;99.90
51337;DHT22;37421;51.176;17.196;2022-12-10T09:35:02;13.40;99.90
51337;DHT22;37421;51.176;17.196;2022-12-10T09:37:34;13.40;99.90
51337;DHT22;37421;51.176;17.196;2022-12-10T09:40:00;13.50;99.90
51337;DHT22;37421;51.176;17.196;2022-12-10T09:42:50;13.50;99.90
51337;DHT22;37421;51.176;17.196;2022-12-10T09:45:30;13.50;99.90
51337;DHT22;37421;51.176;17.196;2022-12-10T09:51:25;13.40;99.90
51337;DHT22;37421;51.176;17.196;2022-12-10T09:54:02;13.40;99.90
51337;DHT22;37421;51.176;17.196;2022-12-10T09:56:39;13.50;99.90
51337;DHT22;37421;51.176;17.196;2022-12-10T09:59:44;13.40;99.90
51337;DHT22;37421;51.176;17.196;2022-12-10T10:02:44;13.50;99.90
51337;DHT22;37421;51.176;17.196;2022-12-10T10:05:16;13.40;99.90
51337;DHT22;37421;51.176;17.196;2022-12-10T10:08:02;13.40;99.90
51337;DHT22;37421;51.176;17.196;2022-12-10T10:10:39;13.30;99.90
51337;DHT22;37421;51.176;17.196;2022-12-10T10:13:14;13.20;99.90
51337;DHT22;37421;51.176;17.196;2022-12-10T10:15:50;13.30;99.90
51337;DHT22;37421;51.176;17.196;2022-12-10T10:18:29;13.20;99.90
51337;DHT22;37421;51.176;17.196;2022-12-10T10:21:23;13.40;99.90
51337;DHT22;37421;51.176;17.196;2022-12-10T10:24:02;13.40;99.90
51337;DHT22;37421;51.176;17.196;2022-12-10T10:26:43;13.40;99.90
51337;DHT22;37421;51.176;17.196;2022-12-10T10:29:14;13.30;99.90
51337;DHT22;37421;51.176;17.196;2022-12-10T10:31:57;13.30;99.90
51337;DHT22;37421;51.176;17.196;2022-12-10T10:34:39;13.20;99.90
51337;DHT22;37421;51.176;17.196;2022-12-10T10:37:20;13.30;99.90
51337;DHT22;37421;51.176;17.196;2022-12-10T10:39:53;13.30;99.90
51337;DHT22;37421;51.176;17.196;2022-12-10T10:42:43;13.40;99.90
51337;DHT22;37421;51.176;17.196;2022-12-10T10:48:13;13.40;99.90
51337;DHT22;37421;51.176;17.196;2022-12-10T10:50:52;13.50;99.90
51337;DHT22;37421;51.176;17.196;2022-12-10T10:59:16;13.40;99.90
51337;DHT22;37421;51.176;17.196;2022-12-10T11:01:57;13.40;99.90
51337;DHT22;37421;51.176;17.196;2022-12-10T11:07:02;13.40;99.90
51337;DHT22;37421;51.176;17.196;2022-12-10T11:09:57;13.40;99.90
51337;DHT22;37421;51.176;17.196;2022-12-10T11:23:47;13.50;99.90
51337;DHT22;37421;51.176;17.196;2022-12-10T11:33:34;13.40;99.90
51337;DHT22;37421;51.176;17.196;2022-12-10T11:39:52;13.60;99.90
51337;DHT22;37421;51.176;17.196;2022-12-10T11:48:34;13.60;99.90
51337;DHT22;37421;51.176;17.196;2022-12-10T11:54:38;13.50;99.90
51337;DHT22;37421;51.176;17.196;2022-12-10T11:57:33;13.50;99.90
51337;DHT22;37421;51.176;17.196;2022-12-10T12:00:26;13.50;99.90
51337;DHT22;37421;51.176;17.196;2022-12-10T12:15:16;13.50;99.90
51337;DHT22;37421;51.176;17.196;2022-12-10T12:18:20;13.50;99.90
51337;DHT22;37421;51.176;17.196;2022-12-10T12:20:52;13.40;99.90
51337;DHT22;37421;51.176;17.196;2022-12-10T12:23:31;13.40;99.90
51337;DHT22;37421;51.176;17.196;2022-12-10T12:26:15;13.30;99.90
51337;DHT22;37421;51.176;17.196;2022-12-10T12:29:18;13.40;99.90
51337;DHT22;37421;51.176;17.196;2022-12-10T12:32:21;13.40;99.90
51337;DHT22;37421;51.176;17.196;2022-12-10T12:35:36;13.40;99.90
51337;DHT22;37421;51.176;17.196;2022-12-10T12:46:37;13.50;99.90
51337;DHT22;37421;51.176;17.196;2022-12-10T12:55:20;13.50;99.90
51337;DHT22;37421;51.176;17.196;2022-12-10T12:58:15;13.50;99.90
51337;DHT22;37421;51.176;17.196;2022-12-10T13:00:50;12.80;99.90
51337;DHT22;37421;51.176;17.196;2022-12-10T13:03:49;12.20;99.90
51337;DHT22;37421;51.176;17.196;2022-12-10T13:06:36;12.00;99.90
51337;DHT22;37421;51.176;17.196;2022-12-10T13:11:44;12.20;99.90
51337;DHT22;37421;51.176;17.196;2022-12-10T13:17:33;12.10;99.90
51337;DHT22;37421;51.176;17.196;2022-12-10T13:20:28;12.00;99.90
51337;DHT22;37421;51.176;17.196;2022-12-10T13:23:03;11.90;99.90
51337;DHT22;37421;51.176;17.196;2022-12-10T13:25:55;11.90;99.90
51337;DHT22;37421;51.176;17.196;2022-12-10T13:28:51;12.00;99.90
51337;DHT22;37421;51.176;17.196;2022-12-10T13:45:05;12.10;99.90
51337;DHT22;37421;51.176;17.196;2022-12-10T13:50:32;12.10;99.90
51337;DHT22;37421;51.176;17.196;2022-12-10T14:08:33;11.90;99.90
51337;DHT22;37421;51.176;17.196;2022-12-10T14:11:37;12.00;99.90
51337;DHT22;37421;51.176;17.196;2022-12-10T14:17:17;11.90;99.90
51337;DHT22;37421;51.176;17.196;2022-12-10T14:19:58;11.90;99.90
51337;DHT22;37421;51.176;17.196;2022-12-10T14:25:57;11.90;99.90
51337;DHT22;37421;51.176;17.196;2022-12-10T14:35:53;11.80;99.90
51337;DHT22;37421;51.176;17.196;2022-12-10T14:38:37;11.90;99.90
51337;DHT22;37421;51.176;17.196;2022-12-10T14:47:27;11.80;99.90
51337;DHT22;37421;51.176;17.196;2022-12-10T14:50:28;11.90;99.90
51337;DHT22;37421;51.176;17.196;2022-12-10T14:56:37;11.80;99.90
51337;DHT22;37421;51.176;17.196;2022-12-10T15:02:59;11.80;99.90
51337;DHT22;37421;51.176;17.196;2022-12-10T15:05:57;11.80;99.90
51337;DHT22;37421;51.176;17.196;2022-12-10T15:08:48;11.80;99.90
51337;DHT22;37421;51.176;17.196;2022-12-10T15:11:20;11.80;99.90
51337;DHT22;37421;51.176;17.196;2022-12-10T15:13:52;11.80;99.90
51337;DHT22;37421;51.176;17.196;2022-12-10T15:19:45;11.70;99.90
51337;DHT22;37421;51.176;17.196;2022-12-10T15:22:22;11.70;99.90
51337;DHT22;37421;51.176;17.196;2022-12-10T15:25:02;11.70;99.90
51337;DHT22;37421;51.176;17.196;2022-12-10T15:27:59;11.70;99.90
51337;DHT22;37421;51.176;17.196;2022-12-10T15:30:39;11.70;99.90
51337;DHT22;37421;51.176;17.196;2022-12-10T15:43:10;11.60;99.90
51337;DHT22;37421;51.176;17.196;2022-12-10T15:45:48;11.70;99.90
51337;DHT22;37421;51.176;17.196;2022-12-10T15:48:22;11.70;99.90
51337;DHT22;37421;51.176;17.196;2022-12-10T15:51:29;11.70;99.90
51337;DHT22;37421;51.176;17.196;2022-12-10T15:54:02;11.70;99.90
51337;DHT22;37421;51.176;17.196;2022-12-10T15:57:28;11.60;99.90
51337;DHT22;37421;51.176;17.196;2022-12-10T16:00:55;11.70;99.90
51337;DHT22;37421;51.176;17.196;2022-12-10T16:07:27;11.80;99.90
51337;DHT22;37421;51.176;17.196;2022-12-10T16:16:56;11.90;99.90
51337;DHT22;37421;51.176;17.196;2022-12-10T16:26:57;11.90;99.90
51337;DHT22;37421;51.176;17.196;2022-12-10T16:29:41;12.00;99.90
51337;DHT22;37421;51.176;17.196;2022-12-10T16:35:45;12.00;99.90
51337;DHT22;37421;51.176;17.196;2022-12-10T16:38:21;12.00;99.90
51337;DHT22;37421;51.176;17.196;2022-12-10T16:44:53;12.00;99.90
51337;DHT22;37421;51.176;17.196;2022-12-10T16:54:31;12.00;99.90
51337;DHT22;37421;51.176;17.196;2022-12-10T16:57:32;12.00;99.90
51337;DHT22;37421;51.176;17.196;2022-12-10T17:00:31;12.00;99.90
51337;DHT22;37421;51.176;17.196;2022-12-10T17:06:40;11.90;99.90
51337;DHT22;37421;51.176;17.196;2022-12-10T17:09:19;12.00;99.90
51337;DHT22;37421;51.176;17.196;2022-12-10T17:12:09;11.90;99.90
51337;DHT22;37421;51.176;17.196;2022-12-10T17:15:03;11.80;99.90
51337;DHT22;37421;51.176;17.196;2022-12-10T17:24:14;11.90;99.90
51337;DHT22;37421;51.176;17.196;2022-12-10T17:27:18;11.90;99.90
51337;DHT22;37421;51.176;17.196;2022-12-10T17:30:00;11.90;99.90
51337;DHT22;37421;51.176;17.196;2022-12-10T17:32:28;12.00;99.90
51337;DHT22;37421;51.176;17.196;2022-12-10T17:38:57;12.00;99.90
51337;DHT22;37421;51.176;17.196;2022-12-10T17:48:26;12.00;99.90
51337;DHT22;37421;51.176;17.196;2022-12-10T17:56:09;11.90;99.90
51337;DHT22;37421;51.176;17.196;2022-12-10T18:10:11;11.90;99.90
51337;DHT22;37421;51.176;17.196;2022-12-10T18:21:02;12.00;99.90
51337;DHT22;37421;51.176;17.196;2022-12-10T18:24:19;11.90;99.90
51337;DHT22;37421;51.176;17.196;2022-12-10T18:27:01;11.70;99.90
51337;DHT22;37421;51.176;17.196;2022-12-10T18:30:04;11.70;99.90
51337;DHT22;37421;51.176;17.196;2022-12-10T18:33:14;11.70;99.90
51337;DHT22;37421;51.176;17.196;2022-12-10T18:36:41;11.70;99.90
51337;DHT22;37421;51.176;17.196;2022-12-10T18:42:55;11.70;99.90
51337;DHT22;37421;51.176;17.196;2022-12-10T18:48:41;11.90;99.90
51337;DHT22;37421;51.176;17.196;2022-12-10T18:54:39;11.90;99.90
51337;DHT22;37421;51.176;17.196;2022-12-10T19:01:26;12.00;99.90
51337;DHT22;37421;51.176;17.196;2022-12-10T19:29:22;11.60;99.90
51337;DHT22;37421;51.176;17.196;2022-12-10T19:32:29;11.70;99.90
51337;DHT22;37421;51.176;17.196;2022-12-10T19:45:36;11.40;99.90
51337;DHT22;37421;51.176;17.196;2022-12-10T19:51:54;11.50;99.90
51337;DHT22;37421;51.176;17.196;2022-12-10T19:54:52;11.50;99.90
51337;DHT22;37421;51.176;17.196;2022-12-10T20:01:44;11.30;99.90
51337;DHT22;37421;51.176;17.196;2022-12-10T20:08:32;11.30;99.90
51337;DHT22;37421;51.176;17.196;2022-12-10T20:11:52;11.40;99.90
51337;DHT22;37421;51.176;17.196;2022-12-10T20:14:48;11.30;99.90
51337;DHT22;37421;51.176;17.196;2022-12-10T20:17:34;11.20;99.90
51337;DHT22;37421;51.176;17.196;2022-12-10T20:20:09;11.20;99.90
51337;DHT22;37421;51.176;17.196;2022-12-10T20:22:42;11.30;99.90
51337;DHT22;37421;51.176;17.196;2022-12-10T20:25:16;11.20;99.90
51337;DHT22;37421;51.176;17.196;2022-12-10T20:28:10;11.30;99.90
51337;DHT22;37421;51.176;17.196;2022-12-10T20:34:28;11.20;99.90
51337;DHT22;37421;51.176;17.196;2022-12-10T20:37:05;11.20;99.90
51337;DHT22;37421;51.176;17.196;2022-12-10T20:40:21;11.20;99.90
51337;DHT22;37421;51.176;17.196;2022-12-10T20:46:50;12.30;99.90
51337;DHT22;37421;51.176;17.196;2022-12-10T20:49:34;12.70;99.90
51337;DHT22;37421;51.176;17.196;2022-12-10T20:52:04;12.80;99.90
51337;DHT22;37421;51.176;17.196;2022-12-10T20:54:36;12.80;99.90
51337;DHT22;37421;51.176;17.196;2022-12-10T20:57:16;12.50;99.90
51337;DHT22;37421;51.176;17.196;2022-12-10T21:06:24;12.80;99.90
51337;DHT22;37421;51.176;17.196;2022-12-10T21:09:04;12.80;99.90
51337;DHT22;37421;51.176;17.196;2022-12-10T21:11:47;12.60;99.90
51337;DHT22;37421;51.176;17.196;2022-12-10T21:14:55;12.40;99.90
51337;DHT22;37421;51.176;17.196;2022-12-10T21:20:57;12.10;99.90
51337;DHT22;37421;51.176;17.196;2022-12-10T21:27:06;11.90;99.90
51337;DHT22;37421;51.176;17.196;2022-12-10T21:29:32;11.90;99.90
51337;DHT22;37421;51.176;17.196;2022-12-10T21:32:27;11.80;99.90
51337;DHT22;37421;51.176;17.196;2022-12-10T21:34:59;11.70;99.90
51337;DHT22;37421;51.176;17.196;2022-12-10T21:37:32;11.60;99.90
51337;DHT22;37421;51.176;17.196;2022-12-10T21:40:02;11.50;99.90
51337;DHT22;37421;51.176;17.196;2022-12-10T21:45:38;11.60;99.90